Airfield :
LOGIN :

Register | Disclaimer

   EN    FR    IT 

 










Legend :    VFR   Marginal VFR   IFR   Intensive IFR   Very Intensive IFR
Visi :
Ceiling :
>= 8 km
>= 3000ft
5 to 8 km
1000 to 3000 ft
1500m to 5 km
500 to 1000 ft
800 to 1500m
200 to 500 ft
< 800m
< 200 ft
Symbols :   Thunderstorms  Fog  Heavy snow  Heavy precipitations  Wind > 20 kt
SIGMETs :     Misc.  Thunderstorms  Icing  Turbulence  Mountain Waves  Volcanic Ashes






- Airport Elevation : 238 ft
- IATA code : FAB


EGLF - Farnborough

CURRENT METAR :
  • 050720Z AUTO 32017G29KT 9999 BKN021/// OVC034/// 05/01 Q1003

EXPIRED METARs :
  • 050650Z AUTO 32015G25KT 290V350 9999 BKN020/// OVC037/// 05/02 Q1003
  • 050620Z AUTO 31014KT 9999 SCT020/// BKN037/// BKN045/// 05/02 Q1002
  • 050550Z AUTO 32015KT 290V350 9999 BKN018/// OVC028/// 05/02 Q1002 REUP
  • 050520Z AUTO 31012KT 9999 -RA BKN020/// OVC028/// 05/02 Q1001 REUP
  • 050450Z AUTO 30012KT 9999 UP FEW014 SCT019 BKN029 04/03 Q1001 RERA

Expired Forecast.
ATIS : +44 09063 800 400 (*282)



MET'MAP, your aeronautical weather chart ! - Copyright ORBIFLY December 2007 - Disclaimer

ORBIFLY MET'MAP TEAM :

Programming & Development : Alexandra Zaïnal
Concept & original design : Baudouin d'Aumeries
Assistance for programming : Marc-Olivier Méhu
Technical & hardware support : Manuel Goepfert

Contact : metmap@orbifly.com




SOURCES & CREDITS :

   NOAA